sensor_id;sensor_type;location;lat;lon;timestamp;P1;durP1;ratioP1;P2;durP2;ratioP2
46597;SDS011;32318;48.858;8.252;2022-12-01T00:03:54;46.90;;;14.98;;
46597;SDS011;32318;48.858;8.252;2022-12-01T00:11:54;52.80;;;15.55;;
46597;SDS011;32318;48.858;8.252;2022-12-01T00:19:55;36.53;;;11.95;;
46597;SDS011;32318;48.858;8.252;2022-12-01T00:27:56;37.10;;;12.40;;
46597;SDS011;32318;48.858;8.252;2022-12-01T00:35:57;35.65;;;12.30;;
46597;SDS011;32318;48.858;8.252;2022-12-01T00:43:58;24.65;;;8.88;;
46597;SDS011;32318;48.858;8.252;2022-12-01T00:51:58;22.52;;;8.35;;
46597;SDS011;32318;48.858;8.252;2022-12-01T00:59:59;20.30;;;8.68;;
46597;SDS011;32318;48.858;8.252;2022-12-01T01:07:59;26.30;;;8.88;;
46597;SDS011;32318;48.858;8.252;2022-12-01T01:16:00;25.67;;;9.60;;
46597;SDS011;32318;48.858;8.252;2022-12-01T01:24:05;22.20;;;9.32;;
46597;SDS011;32318;48.858;8.252;2022-12-01T01:32:05;31.08;;;8.77;;
46597;SDS011;32318;48.858;8.252;2022-12-01T01:40:06;20.38;;;8.05;;
46597;SDS011;32318;48.858;8.252;2022-12-01T01:48:06;25.42;;;8.93;;
46597;SDS011;32318;48.858;8.252;2022-12-01T01:56:09;25.85;;;9.95;;
46597;SDS011;32318;48.858;8.252;2022-12-01T02:04:09;26.63;;;10.27;;
46597;SDS011;32318;48.858;8.252;2022-12-01T02:29:19;22.90;;;8.93;;
46597;SDS011;32318;48.858;8.252;2022-12-01T02:46:07;24.63;;;9.25;;
46597;SDS011;32318;48.858;8.252;2022-12-01T02:54:13;21.05;;;8.13;;
46597;SDS011;32318;48.858;8.252;2022-12-01T03:26:36;33.55;;;12.63;;
46597;SDS011;32318;48.858;8.252;2022-12-01T03:43:05;29.65;;;12.77;;
46597;SDS011;32318;48.858;8.252;2022-12-01T03:59:08;37.40;;;13.27;;
46597;SDS011;32318;48.858;8.252;2022-12-01T04:07:10;37.72;;;14.38;;
46597;SDS011;32318;48.858;8.252;2022-12-01T04:15:13;35.95;;;12.60;;
46597;SDS011;32318;48.858;8.252;2022-12-01T04:23:14;37.85;;;13.50;;
46597;SDS011;32318;48.858;8.252;2022-12-01T04:31:35;35.38;;;13.82;;
46597;SDS011;32318;48.858;8.252;2022-12-01T04:39:36;38.85;;;14.10;;
46597;SDS011;32318;48.858;8.252;2022-12-01T04:47:36;40.50;;;13.48;;
46597;SDS011;32318;48.858;8.252;2022-12-01T04:55:37;41.95;;;15.65;;
46597;SDS011;32318;48.858;8.252;2022-12-01T05:03:38;39.72;;;15.60;;
46597;SDS011;32318;48.858;8.252;2022-12-01T05:11:41;46.53;;;15.70;;
46597;SDS011;32318;48.858;8.252;2022-12-01T05:19:41;46.63;;;16.13;;
46597;SDS011;32318;48.858;8.252;2022-12-01T05:28:00;42.20;;;16.25;;
46597;SDS011;32318;48.858;8.252;2022-12-01T05:36:00;40.63;;;15.35;;
46597;SDS011;32318;48.858;8.252;2022-12-01T05:44:00;40.58;;;15.60;;
46597;SDS011;32318;48.858;8.252;2022-12-01T05:52:00;41.90;;;15.65;;
46597;SDS011;32318;48.858;8.252;2022-12-01T06:00:01;46.08;;;16.95;;
46597;SDS011;32318;48.858;8.252;2022-12-01T06:08:01;47.27;;;16.77;;
46597;SDS011;32318;48.858;8.252;2022-12-01T06:16:03;49.45;;;16.80;;
46597;SDS011;32318;48.858;8.252;2022-12-01T06:24:05;37.20;;;13.73;;
46597;SDS011;32318;48.858;8.252;2022-12-01T06:32:05;42.50;;;14.10;;
46597;SDS011;32318;48.858;8.252;2022-12-01T06:40:06;45.85;;;16.20;;
46597;SDS011;32318;48.858;8.252;2022-12-01T06:48:06;46.03;;;15.85;;
46597;SDS011;32318;48.858;8.252;2022-12-01T06:56:07;47.50;;;17.25;;
46597;SDS011;32318;48.858;8.252;2022-12-01T07:04:07;54.97;;;18.00;;
46597;SDS011;32318;48.858;8.252;2022-12-01T07:12:07;43.95;;;16.17;;
46597;SDS011;32318;48.858;8.252;2022-12-01T07:20:08;46.50;;;15.13;;
46597;SDS011;32318;48.858;8.252;2022-12-01T07:28:09;45.95;;;16.98;;
46597;SDS011;32318;48.858;8.252;2022-12-01T07:36:09;41.20;;;16.70;;
46597;SDS011;32318;48.858;8.252;2022-12-01T07:44:11;48.55;;;17.88;;
46597;SDS011;32318;48.858;8.252;2022-12-01T07:52:12;47.70;;;16.58;;
46597;SDS011;32318;48.858;8.252;2022-12-01T08:00:12;47.20;;;16.83;;
46597;SDS011;32318;48.858;8.252;2022-12-01T08:08:13;45.15;;;17.10;;
46597;SDS011;32318;48.858;8.252;2022-12-01T08:16:14;50.22;;;16.60;;
46597;SDS011;32318;48.858;8.252;2022-12-01T08:24:17;38.83;;;15.07;;
46597;SDS011;32318;48.858;8.252;2022-12-01T08:32:17;41.78;;;16.17;;
46597;SDS011;32318;48.858;8.252;2022-12-01T08:40:18;52.63;;;15.80;;
46597;SDS011;32318;48.858;8.252;2022-12-01T08:48:19;38.50;;;14.60;;
46597;SDS011;32318;48.858;8.252;2022-12-01T08:56:38;43.50;;;15.23;;
46597;SDS011;32318;48.858;8.252;2022-12-01T09:04:41;44.05;;;15.77;;
46597;SDS011;32318;48.858;8.252;2022-12-01T09:12:41;40.97;;;14.00;;
46597;SDS011;32318;48.858;8.252;2022-12-01T09:20:41;42.55;;;13.98;;
46597;SDS011;32318;48.858;8.252;2022-12-01T09:28:42;38.72;;;13.98;;
46597;SDS011;32318;48.858;8.252;2022-12-01T09:36:42;35.60;;;13.52;;
46597;SDS011;32318;48.858;8.252;2022-12-01T09:44:50;33.78;;;13.57;;
46597;SDS011;32318;48.858;8.252;2022-12-01T09:52:55;38.75;;;14.13;;
46597;SDS011;32318;48.858;8.252;2022-12-01T10:00:56;37.00;;;13.85;;
46597;SDS011;32318;48.858;8.252;2022-12-01T10:09:02;29.60;;;11.33;;
46597;SDS011;32318;48.858;8.252;2022-12-01T10:17:28;38.05;;;13.27;;
46597;SDS011;32318;48.858;8.252;2022-12-01T10:25:57;33.97;;;12.45;;
46597;SDS011;32318;48.858;8.252;2022-12-01T10:34:09;34.47;;;12.93;;
46597;SDS011;32318;48.858;8.252;2022-12-01T10:50:29;37.65;;;13.52;;
46597;SDS011;32318;48.858;8.252;2022-12-01T10:58:33;36.00;;;13.55;;
46597;SDS011;32318;48.858;8.252;2022-12-01T11:06:42;34.67;;;13.82;;
46597;SDS011;32318;48.858;8.252;2022-12-01T11:14:49;29.88;;;10.32;;
46597;SDS011;32318;48.858;8.252;2022-12-01T11:22:52;32.80;;;13.13;;
46597;SDS011;32318;48.858;8.252;2022-12-01T11:31:14;37.30;;;13.90;;
46597;SDS011;32318;48.858;8.252;2022-12-01T11:39:22;41.53;;;15.02;;
46597;SDS011;32318;48.858;8.252;2022-12-01T11:47:26;38.00;;;12.88;;
46597;SDS011;32318;48.858;8.252;2022-12-01T11:55:28;31.42;;;11.15;;
46597;SDS011;32318;48.858;8.252;2022-12-01T12:03:35;32.78;;;11.95;;
46597;SDS011;32318;48.858;8.252;2022-12-01T12:12:22;37.72;;;12.98;;
46597;SDS011;32318;48.858;8.252;2022-12-01T12:44:53;34.97;;;13.23;;
46597;SDS011;32318;48.858;8.252;2022-12-01T12:53:07;38.83;;;13.73;;
46597;SDS011;32318;48.858;8.252;2022-12-01T13:01:33;40.88;;;13.27;;
46597;SDS011;32318;48.858;8.252;2022-12-01T13:09:43;35.55;;;13.30;;
46597;SDS011;32318;48.858;8.252;2022-12-01T13:17:50;35.28;;;14.00;;
46597;SDS011;32318;48.858;8.252;2022-12-01T13:25:54;33.55;;;13.10;;
46597;SDS011;32318;48.858;8.252;2022-12-01T13:33:58;37.67;;;13.02;;
46597;SDS011;32318;48.858;8.252;2022-12-01T13:42:05;32.03;;;10.57;;
46597;SDS011;32318;48.858;8.252;2022-12-01T13:58:46;33.80;;;12.35;;
46597;SDS011;32318;48.858;8.252;2022-12-01T14:06:48;37.08;;;14.43;;
46597;SDS011;32318;48.858;8.252;2022-12-01T14:15:26;44.33;;;14.63;;
46597;SDS011;32318;48.858;8.252;2022-12-01T14:39:34;37.88;;;13.85;;
46597;SDS011;32318;48.858;8.252;2022-12-01T14:56:00;37.15;;;13.48;;
46597;SDS011;32318;48.858;8.252;2022-12-01T15:04:13;35.90;;;13.57;;
46597;SDS011;32318;48.858;8.252;2022-12-01T15:12:23;32.95;;;12.70;;
46597;SDS011;32318;48.858;8.252;2022-12-01T15:20:31;41.60;;;14.57;;
46597;SDS011;32318;48.858;8.252;2022-12-01T15:28:35;38.22;;;15.32;;
46597;SDS011;32318;48.858;8.252;2022-12-01T15:36:36;44.83;;;15.05;;
46597;SDS011;32318;48.858;8.252;2022-12-01T15:44:36;35.35;;;13.98;;
46597;SDS011;32318;48.858;8.252;2022-12-01T15:52:40;38.65;;;13.73;;
46597;SDS011;32318;48.858;8.252;2022-12-01T16:00:50;33.33;;;13.07;;
46597;SDS011;32318;48.858;8.252;2022-12-01T16:09:01;39.13;;;13.98;;
46597;SDS011;32318;48.858;8.252;2022-12-01T16:17:05;34.47;;;13.73;;
46597;SDS011;32318;48.858;8.252;2022-12-01T16:25:14;40.88;;;14.48;;
46597;SDS011;32318;48.858;8.252;2022-12-01T16:33:18;40.03;;;13.93;;
46597;SDS011;32318;48.858;8.252;2022-12-01T16:41:30;35.00;;;14.15;;
46597;SDS011;32318;48.858;8.252;2022-12-01T16:49:34;41.05;;;14.55;;
46597;SDS011;32318;48.858;8.252;2022-12-01T16:57:34;39.42;;;14.35;;
46597;SDS011;32318;48.858;8.252;2022-12-01T17:05:34;34.70;;;13.63;;
46597;SDS011;32318;48.858;8.252;2022-12-01T17:13:35;35.00;;;14.35;;
46597;SDS011;32318;48.858;8.252;2022-12-01T17:21:37;36.28;;;14.18;;
46597;SDS011;32318;48.858;8.252;2022-12-01T17:29:37;37.85;;;14.80;;
46597;SDS011;32318;48.858;8.252;2022-12-01T17:37:38;40.08;;;15.27;;
46597;SDS011;32318;48.858;8.252;2022-12-01T17:45:39;37.45;;;13.52;;
46597;SDS011;32318;48.858;8.252;2022-12-01T17:53:40;38.63;;;13.18;;
46597;SDS011;32318;48.858;8.252;2022-12-01T18:01:41;37.38;;;14.35;;
46597;SDS011;32318;48.858;8.252;2022-12-01T18:09:42;36.92;;;14.20;;
46597;SDS011;32318;48.858;8.252;2022-12-01T18:17:42;36.75;;;15.05;;
46597;SDS011;32318;48.858;8.252;2022-12-01T18:25:42;36.70;;;13.85;;
46597;SDS011;32318;48.858;8.252;2022-12-01T18:33:43;39.50;;;15.38;;
46597;SDS011;32318;48.858;8.252;2022-12-01T18:41:43;41.38;;;15.57;;
46597;SDS011;32318;48.858;8.252;2022-12-01T18:49:44;43.17;;;16.10;;
46597;SDS011;32318;48.858;8.252;2022-12-01T18:57:44;41.97;;;15.50;;
46597;SDS011;32318;48.858;8.252;2022-12-01T19:05:45;43.63;;;17.25;;
46597;SDS011;32318;48.858;8.252;2022-12-01T19:13:46;40.17;;;15.13;;
46597;SDS011;32318;48.858;8.252;2022-12-01T19:21:46;41.50;;;15.27;;
46597;SDS011;32318;48.858;8.252;2022-12-01T19:38:46;39.50;;;14.88;;
46597;SDS011;32318;48.858;8.252;2022-12-01T19:46:46;38.47;;;14.18;;
46597;SDS011;32318;48.858;8.252;2022-12-01T19:54:46;45.90;;;16.45;;
46597;SDS011;32318;48.858;8.252;2022-12-01T20:02:47;43.38;;;15.23;;
46597;SDS011;32318;48.858;8.252;2022-12-01T20:10:48;38.45;;;15.18;;
46597;SDS011;32318;48.858;8.252;2022-12-01T20:18:48;39.83;;;16.45;;
46597;SDS011;32318;48.858;8.252;2022-12-01T20:26:51;41.25;;;16.05;;
46597;SDS011;32318;48.858;8.252;2022-12-01T20:34:53;46.40;;;17.95;;
46597;SDS011;32318;48.858;8.252;2022-12-01T20:43:00;43.75;;;16.83;;
46597;SDS011;32318;48.858;8.252;2022-12-01T20:51:01;49.83;;;17.55;;
46597;SDS011;32318;48.858;8.252;2022-12-01T20:59:04;55.22;;;19.85;;
46597;SDS011;32318;48.858;8.252;2022-12-01T21:07:04;52.05;;;19.90;;
46597;SDS011;32318;48.858;8.252;2022-12-01T21:23:16;60.42;;;21.15;;
46597;SDS011;32318;48.858;8.252;2022-12-01T21:31:17;59.20;;;20.48;;
46597;SDS011;32318;48.858;8.252;2022-12-01T21:39:19;52.45;;;20.45;;
46597;SDS011;32318;48.858;8.252;2022-12-01T21:47:34;57.83;;;20.65;;
46597;SDS011;32318;48.858;8.252;2022-12-01T21:55:34;61.85;;;21.70;;
46597;SDS011;32318;48.858;8.252;2022-12-01T22:03:37;72.80;;;21.83;;
46597;SDS011;32318;48.858;8.252;2022-12-01T22:11:49;58.97;;;21.37;;
46597;SDS011;32318;48.858;8.252;2022-12-01T22:27:59;60.17;;;21.95;;
46597;SDS011;32318;48.858;8.252;2022-12-01T22:36:01;62.55;;;21.80;;
46597;SDS011;32318;48.858;8.252;2022-12-01T22:44:20;65.68;;;22.52;;
46597;SDS011;32318;48.858;8.252;2022-12-01T22:52:26;61.72;;;22.02;;
46597;SDS011;32318;48.858;8.252;2022-12-01T23:00:28;71.43;;;23.83;;
46597;SDS011;32318;48.858;8.252;2022-12-01T23:08:28;67.20;;;21.70;;
46597;SDS011;32318;48.858;8.252;2022-12-01T23:16:29;70.93;;;24.20;;
46597;SDS011;32318;48.858;8.252;2022-12-01T23:24:29;68.20;;;22.92;;
46597;SDS011;32318;48.858;8.252;2022-12-01T23:32:29;81.50;;;25.42;;
46597;SDS011;32318;48.858;8.252;2022-12-01T23:40:32;75.68;;;25.10;;
46597;SDS011;32318;48.858;8.252;2022-12-01T23:48:35;70.95;;;23.33;;
46597;SDS011;32318;48.858;8.252;2022-12-01T23:56:38;76.57;;;25.23;;
